sensor_id;sensor_type;location;lat;lon;timestamp;P1;durP1;ratioP1;P2;durP2;ratioP2
55222;SDS011;41090;48.632;12.428;2022-12-16T00:00:20;55.20;;;37.47;;
55222;SDS011;41090;48.632;12.428;2022-12-16T00:02:45;53.70;;;37.03;;
55222;SDS011;41090;48.632;12.428;2022-12-16T00:05:10;56.33;;;37.93;;
55222;SDS011;41090;48.632;12.428;2022-12-16T00:07:36;53.57;;;37.60;;
55222;SDS011;41090;48.632;12.428;2022-12-16T00:10:01;53.70;;;38.07;;
55222;SDS011;41090;48.632;12.428;2022-12-16T00:12:26;56.37;;;37.53;;
55222;SDS011;41090;48.632;12.428;2022-12-16T00:14:51;54.23;;;36.27;;
55222;SDS011;41090;48.632;12.428;2022-12-16T00:17:17;57.10;;;38.63;;
55222;SDS011;41090;48.632;12.428;2022-12-16T00:19:42;53.03;;;34.63;;
55222;SDS011;41090;48.632;12.428;2022-12-16T00:22:07;51.87;;;35.67;;
55222;SDS011;41090;48.632;12.428;2022-12-16T00:24:33;56.97;;;37.70;;
55222;SDS011;41090;48.632;12.428;2022-12-16T00:26:58;55.30;;;37.33;;
55222;SDS011;41090;48.632;12.428;2022-12-16T00:29:23;55.17;;;36.23;;
55222;SDS011;41090;48.632;12.428;2022-12-16T00:31:49;51.17;;;34.87;;
55222;SDS011;41090;48.632;12.428;2022-12-16T00:34:18;55.93;;;35.87;;
55222;SDS011;41090;48.632;12.428;2022-12-16T00:36:43;53.60;;;35.03;;
55222;SDS011;41090;48.632;12.428;2022-12-16T00:39:09;49.80;;;34.40;;
55222;SDS011;41090;48.632;12.428;2022-12-16T00:41:34;47.63;;;33.30;;
55222;SDS011;41090;48.632;12.428;2022-12-16T00:44:00;53.90;;;35.37;;
55222;SDS011;41090;48.632;12.428;2022-12-16T00:46:25;55.93;;;37.23;;
55222;SDS011;41090;48.632;12.428;2022-12-16T00:48:50;53.87;;;36.90;;
55222;SDS011;41090;48.632;12.428;2022-12-16T00:51:16;56.77;;;36.23;;
55222;SDS011;41090;48.632;12.428;2022-12-16T00:53:42;53.50;;;36.47;;
55222;SDS011;41090;48.632;12.428;2022-12-16T00:56:08;52.70;;;36.57;;
55222;SDS011;41090;48.632;12.428;2022-12-16T00:58:40;54.90;;;36.20;;
55222;SDS011;41090;48.632;12.428;2022-12-16T01:03:35;54.47;;;36.40;;
55222;SDS011;41090;48.632;12.428;2022-12-16T01:06:00;50.87;;;35.13;;
55222;SDS011;41090;48.632;12.428;2022-12-16T01:08:25;44.23;;;31.90;;
55222;SDS011;41090;48.632;12.428;2022-12-16T01:10:56;45.07;;;32.83;;
55222;SDS011;41090;48.632;12.428;2022-12-16T01:13:21;48.60;;;33.10;;
55222;SDS011;41090;48.632;12.428;2022-12-16T01:15:48;47.57;;;33.30;;
55222;SDS011;41090;48.632;12.428;2022-12-16T01:18:13;47.10;;;33.43;;
55222;SDS011;41090;48.632;12.428;2022-12-16T01:20:39;45.83;;;31.93;;
55222;SDS011;41090;48.632;12.428;2022-12-16T01:23:04;45.87;;;31.87;;
55222;SDS011;41090;48.632;12.428;2022-12-16T01:25:29;46.70;;;32.13;;
55222;SDS011;41090;48.632;12.428;2022-12-16T01:27:55;44.77;;;32.53;;
55222;SDS011;41090;48.632;12.428;2022-12-16T01:30:20;46.70;;;31.63;;
55222;SDS011;41090;48.632;12.428;2022-12-16T01:32:46;44.17;;;30.90;;
55222;SDS011;41090;48.632;12.428;2022-12-16T01:35:11;40.80;;;29.77;;
55222;SDS011;41090;48.632;12.428;2022-12-16T01:37:38;39.03;;;27.90;;
55222;SDS011;41090;48.632;12.428;2022-12-16T01:40:04;44.87;;;31.67;;
55222;SDS011;41090;48.632;12.428;2022-12-16T01:42:29;40.47;;;29.07;;
55222;SDS011;41090;48.632;12.428;2022-12-16T01:44:57;38.90;;;29.30;;
55222;SDS011;41090;48.632;12.428;2022-12-16T01:47:44;44.90;;;30.83;;
55222;SDS011;41090;48.632;12.428;2022-12-16T01:50:12;42.20;;;30.07;;
55222;SDS011;41090;48.632;12.428;2022-12-16T01:52:41;39.57;;;29.03;;
55222;SDS011;41090;48.632;12.428;2022-12-16T01:55:11;41.07;;;30.47;;
55222;SDS011;41090;48.632;12.428;2022-12-16T01:57:39;43.20;;;30.43;;
55222;SDS011;41090;48.632;12.428;2022-12-16T02:00:07;39.13;;;29.47;;
55222;SDS011;41090;48.632;12.428;2022-12-16T02:02:34;41.47;;;30.13;;
55222;SDS011;41090;48.632;12.428;2022-12-16T02:05:00;40.97;;;29.97;;
55222;SDS011;41090;48.632;12.428;2022-12-16T02:07:55;44.63;;;31.57;;
55222;SDS011;41090;48.632;12.428;2022-12-16T02:10:24;49.63;;;35.40;;
55222;SDS011;41090;48.632;12.428;2022-12-16T02:15:56;51.50;;;35.77;;
55222;SDS011;41090;48.632;12.428;2022-12-16T02:29:12;58.67;;;39.47;;
55222;SDS011;41090;48.632;12.428;2022-12-16T02:31:17;60.27;;;39.90;;
55222;SDS011;41090;48.632;12.428;2022-12-16T02:34:01;55.83;;;38.90;;
55222;SDS011;41090;48.632;12.428;2022-12-16T02:39:04;64.73;;;40.90;;
55222;SDS011;41090;48.632;12.428;2022-12-16T02:41:42;61.00;;;40.30;;
55222;SDS011;41090;48.632;12.428;2022-12-16T02:44:10;61.77;;;41.70;;
55222;SDS011;41090;48.632;12.428;2022-12-16T02:46:50;62.97;;;41.63;;
55222;SDS011;41090;48.632;12.428;2022-12-16T02:51:43;58.37;;;40.17;;
55222;SDS011;41090;48.632;12.428;2022-12-16T02:54:08;61.77;;;40.80;;
55222;SDS011;41090;48.632;12.428;2022-12-16T02:59:23;64.13;;;41.13;;
55222;SDS011;41090;48.632;12.428;2022-12-16T03:02:03;61.70;;;41.37;;
55222;SDS011;41090;48.632;12.428;2022-12-16T03:04:30;60.87;;;40.40;;
55222;SDS011;41090;48.632;12.428;2022-12-16T03:06:58;60.17;;;40.73;;
55222;SDS011;41090;48.632;12.428;2022-12-16T03:11:58;64.53;;;42.20;;
55222;SDS011;41090;48.632;12.428;2022-12-16T03:14:26;65.33;;;43.17;;
55222;SDS011;41090;48.632;12.428;2022-12-16T03:16:58;66.70;;;43.50;;
55222;SDS011;41090;48.632;12.428;2022-12-16T03:19:25;67.60;;;43.80;;
55222;SDS011;41090;48.632;12.428;2022-12-16T03:22:06;65.17;;;42.17;;
55222;SDS011;41090;48.632;12.428;2022-12-16T03:24:32;67.13;;;43.83;;
55222;SDS011;41090;48.632;12.428;2022-12-16T03:34:25;71.77;;;47.20;;
55222;SDS011;41090;48.632;12.428;2022-12-16T03:36:53;70.50;;;45.47;;
55222;SDS011;41090;48.632;12.428;2022-12-16T03:39:19;69.73;;;44.77;;
55222;SDS011;41090;48.632;12.428;2022-12-16T03:41:45;68.50;;;44.07;;
55222;SDS011;41090;48.632;12.428;2022-12-16T03:44:11;67.13;;;44.30;;
55222;SDS011;41090;48.632;12.428;2022-12-16T03:46:37;72.13;;;45.17;;
55222;SDS011;41090;48.632;12.428;2022-12-16T03:49:05;69.00;;;45.57;;
55222;SDS011;41090;48.632;12.428;2022-12-16T03:51:30;69.93;;;45.70;;
55222;SDS011;41090;48.632;12.428;2022-12-16T03:56:32;74.80;;;47.97;;
55222;SDS011;41090;48.632;12.428;2022-12-16T03:58:57;75.83;;;47.10;;
55222;SDS011;41090;48.632;12.428;2022-12-16T04:01:22;75.53;;;47.30;;
55222;SDS011;41090;48.632;12.428;2022-12-16T04:03:49;75.60;;;46.73;;
55222;SDS011;41090;48.632;12.428;2022-12-16T04:06:17;70.13;;;45.50;;
55222;SDS011;41090;48.632;12.428;2022-12-16T04:08:46;69.40;;;44.23;;
55222;SDS011;41090;48.632;12.428;2022-12-16T04:11:12;72.80;;;46.20;;
55222;SDS011;41090;48.632;12.428;2022-12-16T04:13:57;72.30;;;45.17;;
55222;SDS011;41090;48.632;12.428;2022-12-16T04:16:43;78.13;;;47.53;;
55222;SDS011;41090;48.632;12.428;2022-12-16T04:19:33;69.00;;;44.57;;
55222;SDS011;41090;48.632;12.428;2022-12-16T04:22:39;75.43;;;48.10;;
55222;SDS011;41090;48.632;12.428;2022-12-16T04:25:28;72.53;;;45.43;;
55222;SDS011;41090;48.632;12.428;2022-12-16T04:27:55;74.30;;;47.03;;
55222;SDS011;41090;48.632;12.428;2022-12-16T04:30:22;72.27;;;45.13;;
55222;SDS011;41090;48.632;12.428;2022-12-16T04:32:58;70.77;;;45.40;;
55222;SDS011;41090;48.632;12.428;2022-12-16T04:35:43;70.67;;;45.50;;
55222;SDS011;41090;48.632;12.428;2022-12-16T04:41:36;74.30;;;45.73;;
55222;SDS011;41090;48.632;12.428;2022-12-16T04:44:21;70.23;;;44.87;;
55222;SDS011;41090;48.632;12.428;2022-12-16T04:47:13;63.43;;;42.10;;
55222;SDS011;41090;48.632;12.428;2022-12-16T04:49:57;71.00;;;44.07;;
55222;SDS011;41090;48.632;12.428;2022-12-16T04:52:44;72.57;;;45.67;;
55222;SDS011;41090;48.632;12.428;2022-12-16T04:55:28;75.10;;;46.77;;
55222;SDS011;41090;48.632;12.428;2022-12-16T04:58:15;71.47;;;45.33;;
55222;SDS011;41090;48.632;12.428;2022-12-16T05:01:00;77.07;;;46.50;;
55222;SDS011;41090;48.632;12.428;2022-12-16T05:03:44;72.67;;;45.30;;
55222;SDS011;41090;48.632;12.428;2022-12-16T05:06:28;73.20;;;44.53;;
55222;SDS011;41090;48.632;12.428;2022-12-16T05:09:12;73.33;;;45.40;;
55222;SDS011;41090;48.632;12.428;2022-12-16T05:11:56;71.73;;;45.33;;
55222;SDS011;41090;48.632;12.428;2022-12-16T05:14:40;74.07;;;47.20;;
55222;SDS011;41090;48.632;12.428;2022-12-16T05:17:25;74.63;;;45.87;;
55222;SDS011;41090;48.632;12.428;2022-12-16T05:20:09;73.57;;;45.27;;
55222;SDS011;41090;48.632;12.428;2022-12-16T05:22:56;66.40;;;44.47;;
55222;SDS011;41090;48.632;12.428;2022-12-16T05:25:40;72.17;;;44.23;;
55222;SDS011;41090;48.632;12.428;2022-12-16T05:28:23;72.30;;;44.93;;
55222;SDS011;41090;48.632;12.428;2022-12-16T05:31:07;70.70;;;45.70;;
55222;SDS011;41090;48.632;12.428;2022-12-16T05:33:51;70.70;;;44.83;;
55222;SDS011;41090;48.632;12.428;2022-12-16T05:36:36;71.20;;;44.17;;
55222;SDS011;41090;48.632;12.428;2022-12-16T05:45:18;69.60;;;45.47;;
55222;SDS011;41090;48.632;12.428;2022-12-16T05:48:03;69.33;;;44.47;;
55222;SDS011;41090;48.632;12.428;2022-12-16T05:50:49;71.30;;;45.53;;
55222;SDS011;41090;48.632;12.428;2022-12-16T05:56:36;71.20;;;44.57;;
55222;SDS011;41090;48.632;12.428;2022-12-16T05:59:20;73.60;;;44.00;;
55222;SDS011;41090;48.632;12.428;2022-12-16T06:02:04;74.93;;;46.20;;
55222;SDS011;41090;48.632;12.428;2022-12-16T06:04:48;72.23;;;43.63;;
55222;SDS011;41090;48.632;12.428;2022-12-16T06:07:32;73.70;;;46.20;;
55222;SDS011;41090;48.632;12.428;2022-12-16T06:10:16;69.67;;;45.07;;
55222;SDS011;41090;48.632;12.428;2022-12-16T06:13:00;74.13;;;46.20;;
55222;SDS011;41090;48.632;12.428;2022-12-16T06:15:44;74.10;;;46.00;;
55222;SDS011;41090;48.632;12.428;2022-12-16T06:18:27;72.17;;;45.07;;
55222;SDS011;41090;48.632;12.428;2022-12-16T06:21:11;73.13;;;44.80;;
55222;SDS011;41090;48.632;12.428;2022-12-16T06:23:55;72.87;;;46.37;;
55222;SDS011;41090;48.632;12.428;2022-12-16T06:26:39;71.90;;;44.73;;
55222;SDS011;41090;48.632;12.428;2022-12-16T06:29:25;73.07;;;45.00;;
55222;SDS011;41090;48.632;12.428;2022-12-16T06:32:10;70.47;;;44.97;;
55222;SDS011;41090;48.632;12.428;2022-12-16T06:34:54;71.10;;;45.33;;
55222;SDS011;41090;48.632;12.428;2022-12-16T06:37:38;73.60;;;45.40;;
55222;SDS011;41090;48.632;12.428;2022-12-16T06:40:22;70.07;;;45.43;;
55222;SDS011;41090;48.632;12.428;2022-12-16T06:43:06;72.33;;;45.97;;
55222;SDS011;41090;48.632;12.428;2022-12-16T06:45:51;73.83;;;46.13;;
55222;SDS011;41090;48.632;12.428;2022-12-16T06:48:36;74.60;;;47.43;;
55222;SDS011;41090;48.632;12.428;2022-12-16T06:57:25;76.53;;;46.47;;
55222;SDS011;41090;48.632;12.428;2022-12-16T07:00:17;71.00;;;46.67;;
55222;SDS011;41090;48.632;12.428;2022-12-16T07:03:09;71.53;;;46.83;;
55222;SDS011;41090;48.632;12.428;2022-12-16T07:05:53;75.50;;;47.43;;
55222;SDS011;41090;48.632;12.428;2022-12-16T07:08:43;72.60;;;46.70;;
55222;SDS011;41090;48.632;12.428;2022-12-16T07:11:35;77.70;;;47.87;;
55222;SDS011;41090;48.632;12.428;2022-12-16T07:14:24;84.13;;;49.43;;
55222;SDS011;41090;48.632;12.428;2022-12-16T07:17:09;71.67;;;46.10;;
55222;SDS011;41090;48.632;12.428;2022-12-16T07:19:57;72.00;;;45.93;;
55222;SDS011;41090;48.632;12.428;2022-12-16T07:22:41;76.73;;;46.83;;
55222;SDS011;41090;48.632;12.428;2022-12-16T07:25:28;74.63;;;45.00;;
55222;SDS011;41090;48.632;12.428;2022-12-16T07:28:13;75.80;;;47.47;;
55222;SDS011;41090;48.632;12.428;2022-12-16T07:30:57;81.90;;;48.47;;
55222;SDS011;41090;48.632;12.428;2022-12-16T07:33:41;79.13;;;47.57;;
55222;SDS011;41090;48.632;12.428;2022-12-16T07:39:14;82.40;;;47.83;;
55222;SDS011;41090;48.632;12.428;2022-12-16T07:41:58;72.47;;;44.70;;
55222;SDS011;41090;48.632;12.428;2022-12-16T07:44:42;73.10;;;46.33;;
55222;SDS011;41090;48.632;12.428;2022-12-16T07:47:26;74.23;;;45.60;;
55222;SDS011;41090;48.632;12.428;2022-12-16T07:50:11;71.33;;;45.47;;
55222;SDS011;41090;48.632;12.428;2022-12-16T07:52:55;74.97;;;46.77;;
55222;SDS011;41090;48.632;12.428;2022-12-16T07:55:40;73.53;;;46.03;;
55222;SDS011;41090;48.632;12.428;2022-12-16T07:58:23;72.80;;;45.43;;
55222;SDS011;41090;48.632;12.428;2022-12-16T08:01:07;71.43;;;44.67;;
55222;SDS011;41090;48.632;12.428;2022-12-16T08:03:51;70.93;;;45.93;;
55222;SDS011;41090;48.632;12.428;2022-12-16T08:06:35;72.40;;;46.10;;
55222;SDS011;41090;48.632;12.428;2022-12-16T08:09:19;70.17;;;44.63;;
55222;SDS011;41090;48.632;12.428;2022-12-16T08:12:04;70.63;;;44.00;;
55222;SDS011;41090;48.632;12.428;2022-12-16T08:14:48;68.70;;;42.43;;
55222;SDS011;41090;48.632;12.428;2022-12-16T08:20:25;72.63;;;44.60;;
55222;SDS011;41090;48.632;12.428;2022-12-16T08:23:09;71.90;;;45.77;;
55222;SDS011;41090;48.632;12.428;2022-12-16T08:25:53;67.53;;;43.60;;
55222;SDS011;41090;48.632;12.428;2022-12-16T08:28:37;70.27;;;43.67;;
55222;SDS011;41090;48.632;12.428;2022-12-16T08:31:23;71.77;;;45.97;;
55222;SDS011;41090;48.632;12.428;2022-12-16T08:34:07;68.63;;;42.67;;
55222;SDS011;41090;48.632;12.428;2022-12-16T08:37:01;67.43;;;44.37;;
55222;SDS011;41090;48.632;12.428;2022-12-16T08:39:45;70.03;;;44.50;;
55222;SDS011;41090;48.632;12.428;2022-12-16T08:42:31;66.43;;;43.10;;
55222;SDS011;41090;48.632;12.428;2022-12-16T08:45:21;64.37;;;44.00;;
55222;SDS011;41090;48.632;12.428;2022-12-16T08:48:06;68.07;;;42.97;;
55222;SDS011;41090;48.632;12.428;2022-12-16T08:51:01;71.10;;;45.40;;
55222;SDS011;41090;48.632;12.428;2022-12-16T08:53:46;67.67;;;43.57;;
55222;SDS011;41090;48.632;12.428;2022-12-16T08:56:31;69.77;;;42.93;;
55222;SDS011;41090;48.632;12.428;2022-12-16T08:59:20;70.10;;;43.90;;
55222;SDS011;41090;48.632;12.428;2022-12-16T09:02:08;70.07;;;43.90;;
55222;SDS011;41090;48.632;12.428;2022-12-16T09:07:45;68.10;;;43.70;;
55222;SDS011;41090;48.632;12.428;2022-12-16T09:10:33;70.93;;;45.37;;
55222;SDS011;41090;48.632;12.428;2022-12-16T09:13:30;70.30;;;44.33;;
55222;SDS011;41090;48.632;12.428;2022-12-16T09:16:17;68.10;;;42.93;;
55222;SDS011;41090;48.632;12.428;2022-12-16T09:19:01;67.97;;;43.03;;
55222;SDS011;41090;48.632;12.428;2022-12-16T09:21:46;69.33;;;45.20;;
55222;SDS011;41090;48.632;12.428;2022-12-16T09:24:30;66.17;;;42.53;;
55222;SDS011;41090;48.632;12.428;2022-12-16T09:27:17;70.67;;;44.90;;
55222;SDS011;41090;48.632;12.428;2022-12-16T09:30:01;69.77;;;41.90;;
55222;SDS011;41090;48.632;12.428;2022-12-16T09:32:47;66.57;;;42.63;;
55222;SDS011;41090;48.632;12.428;2022-12-16T09:35:31;70.83;;;43.93;;
55222;SDS011;41090;48.632;12.428;2022-12-16T09:38:15;66.10;;;42.03;;
55222;SDS011;41090;48.632;12.428;2022-12-16T09:44:05;71.47;;;45.87;;
55222;SDS011;41090;48.632;12.428;2022-12-16T09:50:16;68.50;;;43.97;;
55222;SDS011;41090;48.632;12.428;2022-12-16T09:53:01;66.03;;;42.57;;
55222;SDS011;41090;48.632;12.428;2022-12-16T09:55:52;62.40;;;40.70;;
55222;SDS011;41090;48.632;12.428;2022-12-16T09:58:40;67.87;;;41.80;;
55222;SDS011;41090;48.632;12.428;2022-12-16T10:01:28;68.47;;;42.77;;
55222;SDS011;41090;48.632;12.428;2022-12-16T10:04:15;63.23;;;41.30;;
55222;SDS011;41090;48.632;12.428;2022-12-16T10:07:01;65.97;;;43.67;;
55222;SDS011;41090;48.632;12.428;2022-12-16T10:12:56;68.40;;;43.10;;
55222;SDS011;41090;48.632;12.428;2022-12-16T10:21:51;62.47;;;40.20;;
55222;SDS011;41090;48.632;12.428;2022-12-16T10:36:45;63.97;;;40.23;;
55222;SDS011;41090;48.632;12.428;2022-12-16T10:42:34;57.47;;;39.30;;
55222;SDS011;41090;48.632;12.428;2022-12-16T10:45:30;58.57;;;38.87;;
55222;SDS011;41090;48.632;12.428;2022-12-16T10:48:17;60.50;;;37.80;;
55222;SDS011;41090;48.632;12.428;2022-12-16T10:51:02;61.17;;;38.10;;
55222;SDS011;41090;48.632;12.428;2022-12-16T10:53:55;56.77;;;36.60;;
55222;SDS011;41090;48.632;12.428;2022-12-16T10:56:54;56.47;;;37.57;;
55222;SDS011;41090;48.632;12.428;2022-12-16T10:59:42;58.93;;;38.20;;
55222;SDS011;41090;48.632;12.428;2022-12-16T11:02:28;60.77;;;37.70;;
55222;SDS011;41090;48.632;12.428;2022-12-16T11:05:29;62.43;;;39.80;;
55222;SDS011;41090;48.632;12.428;2022-12-16T11:08:21;57.97;;;37.17;;
55222;SDS011;41090;48.632;12.428;2022-12-16T11:13:36;66.67;;;40.50;;
55222;SDS011;41090;48.632;12.428;2022-12-16T11:16:27;58.27;;;38.37;;
55222;SDS011;41090;48.632;12.428;2022-12-16T11:19:44;56.73;;;37.40;;
55222;SDS011;41090;48.632;12.428;2022-12-16T11:22:22;54.77;;;36.13;;
55222;SDS011;41090;48.632;12.428;2022-12-16T11:25:19;58.33;;;38.03;;
55222;SDS011;41090;48.632;12.428;2022-12-16T11:30:55;55.63;;;36.07;;
55222;SDS011;41090;48.632;12.428;2022-12-16T11:33:42;59.30;;;39.40;;
55222;SDS011;41090;48.632;12.428;2022-12-16T11:36:27;55.77;;;38.53;;
55222;SDS011;41090;48.632;12.428;2022-12-16T11:39:14;58.53;;;37.73;;
55222;SDS011;41090;48.632;12.428;2022-12-16T11:41:59;57.50;;;37.47;;
55222;SDS011;41090;48.632;12.428;2022-12-16T11:44:48;59.90;;;38.37;;
55222;SDS011;41090;48.632;12.428;2022-12-16T11:50:50;61.77;;;39.13;;
55222;SDS011;41090;48.632;12.428;2022-12-16T11:53:47;61.57;;;38.93;;
55222;SDS011;41090;48.632;12.428;2022-12-16T11:56:45;62.33;;;40.37;;
55222;SDS011;41090;48.632;12.428;2022-12-16T12:02:39;55.70;;;36.67;;
55222;SDS011;41090;48.632;12.428;2022-12-16T12:05:42;58.20;;;37.30;;
55222;SDS011;41090;48.632;12.428;2022-12-16T12:23:31;63.87;;;38.97;;
55222;SDS011;41090;48.632;12.428;2022-12-16T12:26:29;59.57;;;36.67;;
55222;SDS011;41090;48.632;12.428;2022-12-16T12:42:04;59.13;;;36.93;;
55222;SDS011;41090;48.632;12.428;2022-12-16T12:44:44;58.83;;;36.50;;
55222;SDS011;41090;48.632;12.428;2022-12-16T12:47:32;57.80;;;36.67;;
55222;SDS011;41090;48.632;12.428;2022-12-16T12:50:29;57.03;;;37.43;;
55222;SDS011;41090;48.632;12.428;2022-12-16T12:56:10;54.53;;;36.30;;
55222;SDS011;41090;48.632;12.428;2022-12-16T12:58:58;58.90;;;38.33;;
55222;SDS011;41090;48.632;12.428;2022-12-16T13:01:47;57.33;;;34.90;;
55222;SDS011;41090;48.632;12.428;2022-12-16T13:04:32;53.83;;;36.33;;
55222;SDS011;41090;48.632;12.428;2022-12-16T13:07:16;55.83;;;36.30;;
55222;SDS011;41090;48.632;12.428;2022-12-16T13:10:43;56.97;;;35.70;;
55222;SDS011;41090;48.632;12.428;2022-12-16T13:15:57;57.23;;;35.97;;
55222;SDS011;41090;48.632;12.428;2022-12-16T13:18:42;58.10;;;37.50;;
55222;SDS011;41090;48.632;12.428;2022-12-16T13:24:39;63.50;;;39.13;;
55222;SDS011;41090;48.632;12.428;2022-12-16T13:27:24;59.10;;;38.60;;
55222;SDS011;41090;48.632;12.428;2022-12-16T13:33:04;59.37;;;39.97;;
55222;SDS011;41090;48.632;12.428;2022-12-16T13:35:55;54.63;;;35.93;;
55222;SDS011;41090;48.632;12.428;2022-12-16T13:38:47;58.73;;;37.77;;
55222;SDS011;41090;48.632;12.428;2022-12-16T13:56:15;65.20;;;43.67;;
55222;SDS011;41090;48.632;12.428;2022-12-16T13:59:02;60.27;;;38.33;;
55222;SDS011;41090;48.632;12.428;2022-12-16T14:01:54;56.80;;;38.70;;
55222;SDS011;41090;48.632;12.428;2022-12-16T14:04:43;62.70;;;39.53;;
55222;SDS011;41090;48.632;12.428;2022-12-16T14:07:40;58.10;;;37.80;;
55222;SDS011;41090;48.632;12.428;2022-12-16T14:10:25;61.13;;;38.40;;
55222;SDS011;41090;48.632;12.428;2022-12-16T14:13:26;59.90;;;38.70;;
55222;SDS011;41090;48.632;12.428;2022-12-16T14:16:15;55.37;;;37.13;;
55222;SDS011;41090;48.632;12.428;2022-12-16T14:21:53;58.33;;;38.60;;
55222;SDS011;41090;48.632;12.428;2022-12-16T14:24:40;65.10;;;43.00;;
55222;SDS011;41090;48.632;12.428;2022-12-16T14:27:24;63.07;;;41.40;;
55222;SDS011;41090;48.632;12.428;2022-12-16T14:30:41;58.63;;;37.97;;
55222;SDS011;41090;48.632;12.428;2022-12-16T14:33:25;56.97;;;36.90;;
55222;SDS011;41090;48.632;12.428;2022-12-16T14:36:23;58.07;;;38.63;;
55222;SDS011;41090;48.632;12.428;2022-12-16T14:39:19;59.43;;;38.17;;
55222;SDS011;41090;48.632;12.428;2022-12-16T14:42:04;70.83;;;42.83;;
55222;SDS011;41090;48.632;12.428;2022-12-16T14:44:57;95.80;;;57.63;;
55222;SDS011;41090;48.632;12.428;2022-12-16T14:47:41;112.17;;;63.90;;
55222;SDS011;41090;48.632;12.428;2022-12-16T14:50:26;72.80;;;45.70;;
55222;SDS011;41090;48.632;12.428;2022-12-16T14:59:07;59.43;;;37.23;;
55222;SDS011;41090;48.632;12.428;2022-12-16T15:01:51;59.03;;;38.10;;
55222;SDS011;41090;48.632;12.428;2022-12-16T15:04:36;54.07;;;34.97;;
55222;SDS011;41090;48.632;12.428;2022-12-16T15:07:21;56.87;;;36.43;;
55222;SDS011;41090;48.632;12.428;2022-12-16T15:10:05;53.13;;;34.20;;
55222;SDS011;41090;48.632;12.428;2022-12-16T15:12:49;52.30;;;34.47;;
55222;SDS011;41090;48.632;12.428;2022-12-16T15:15:37;57.93;;;36.43;;
55222;SDS011;41090;48.632;12.428;2022-12-16T15:18:29;53.33;;;33.83;;
55222;SDS011;41090;48.632;12.428;2022-12-16T15:21:14;52.63;;;34.73;;
55222;SDS011;41090;48.632;12.428;2022-12-16T15:23:58;48.17;;;32.00;;
55222;SDS011;41090;48.632;12.428;2022-12-16T15:26:42;59.23;;;35.67;;
55222;SDS011;41090;48.632;12.428;2022-12-16T15:29:33;55.73;;;33.93;;
55222;SDS011;41090;48.632;12.428;2022-12-16T15:32:40;57.03;;;34.83;;
55222;SDS011;41090;48.632;12.428;2022-12-16T15:38:17;56.30;;;34.90;;
55222;SDS011;41090;48.632;12.428;2022-12-16T15:41:03;54.17;;;35.60;;
55222;SDS011;41090;48.632;12.428;2022-12-16T15:43:47;49.63;;;31.63;;
55222;SDS011;41090;48.632;12.428;2022-12-16T15:46:31;49.33;;;32.33;;
55222;SDS011;41090;48.632;12.428;2022-12-16T15:52:22;52.87;;;34.60;;
55222;SDS011;41090;48.632;12.428;2022-12-16T15:55:20;51.43;;;33.43;;
55222;SDS011;41090;48.632;12.428;2022-12-16T15:58:10;47.73;;;31.27;;
55222;SDS011;41090;48.632;12.428;2022-12-16T16:01:00;55.50;;;34.87;;
55222;SDS011;41090;48.632;12.428;2022-12-16T16:03:51;52.67;;;34.37;;
55222;SDS011;41090;48.632;12.428;2022-12-16T16:06:35;49.60;;;33.37;;
55222;SDS011;41090;48.632;12.428;2022-12-16T16:09:20;49.57;;;31.30;;
55222;SDS011;41090;48.632;12.428;2022-12-16T16:12:07;47.13;;;31.03;;
55222;SDS011;41090;48.632;12.428;2022-12-16T16:17:59;46.87;;;30.77;;
55222;SDS011;41090;48.632;12.428;2022-12-16T16:20:44;44.07;;;29.40;;
55222;SDS011;41090;48.632;12.428;2022-12-16T16:23:28;46.30;;;30.03;;
55222;SDS011;41090;48.632;12.428;2022-12-16T16:26:13;51.63;;;31.93;;
55222;SDS011;41090;48.632;12.428;2022-12-16T16:28:57;45.60;;;30.83;;
55222;SDS011;41090;48.632;12.428;2022-12-16T16:34:35;68.03;;;46.40;;
55222;SDS011;41090;48.632;12.428;2022-12-16T16:37:25;157.07;;;103.77;;
55222;SDS011;41090;48.632;12.428;2022-12-16T16:43:11;73.20;;;50.70;;
55222;SDS011;41090;48.632;12.428;2022-12-16T16:45:55;117.60;;;81.57;;
55222;SDS011;41090;48.632;12.428;2022-12-16T16:51:31;47.17;;;29.77;;
55222;SDS011;41090;48.632;12.428;2022-12-16T16:54:25;49.53;;;31.50;;
55222;SDS011;41090;48.632;12.428;2022-12-16T16:57:11;48.87;;;31.17;;
55222;SDS011;41090;48.632;12.428;2022-12-16T17:02:48;47.20;;;30.10;;
55222;SDS011;41090;48.632;12.428;2022-12-16T17:05:37;48.33;;;31.20;;
55222;SDS011;41090;48.632;12.428;2022-12-16T17:08:25;56.27;;;33.30;;
55222;SDS011;41090;48.632;12.428;2022-12-16T17:11:17;52.20;;;33.57;;
55222;SDS011;41090;48.632;12.428;2022-12-16T17:14:00;50.70;;;28.90;;
55222;SDS011;41090;48.632;12.428;2022-12-16T17:16:45;51.17;;;32.93;;
55222;SDS011;41090;48.632;12.428;2022-12-16T17:19:30;45.40;;;30.23;;
55222;SDS011;41090;48.632;12.428;2022-12-16T17:22:13;44.23;;;29.33;;
55222;SDS011;41090;48.632;12.428;2022-12-16T17:24:57;40.27;;;27.33;;
55222;SDS011;41090;48.632;12.428;2022-12-16T17:27:42;40.10;;;25.47;;
55222;SDS011;41090;48.632;12.428;2022-12-16T17:30:26;35.77;;;24.17;;
55222;SDS011;41090;48.632;12.428;2022-12-16T17:33:11;34.07;;;23.37;;
55222;SDS011;41090;48.632;12.428;2022-12-16T17:38:51;34.43;;;23.43;;
55222;SDS011;41090;48.632;12.428;2022-12-16T17:41:35;33.50;;;23.63;;
55222;SDS011;41090;48.632;12.428;2022-12-16T17:44:19;34.20;;;25.03;;
55222;SDS011;41090;48.632;12.428;2022-12-16T17:47:03;43.77;;;28.07;;
55222;SDS011;41090;48.632;12.428;2022-12-16T17:49:47;35.73;;;24.10;;
55222;SDS011;41090;48.632;12.428;2022-12-16T17:52:31;39.47;;;26.63;;
55222;SDS011;41090;48.632;12.428;2022-12-16T17:55:15;47.67;;;32.53;;
55222;SDS011;41090;48.632;12.428;2022-12-16T17:57:59;34.33;;;25.33;;
55222;SDS011;41090;48.632;12.428;2022-12-16T18:00:46;33.00;;;23.27;;
55222;SDS011;41090;48.632;12.428;2022-12-16T18:03:30;40.47;;;26.37;;
55222;SDS011;41090;48.632;12.428;2022-12-16T18:06:14;36.13;;;24.93;;
55222;SDS011;41090;48.632;12.428;2022-12-16T18:08:58;37.17;;;25.63;;
55222;SDS011;41090;48.632;12.428;2022-12-16T18:11:42;33.43;;;24.23;;
55222;SDS011;41090;48.632;12.428;2022-12-16T18:14:32;35.40;;;24.13;;
55222;SDS011;41090;48.632;12.428;2022-12-16T18:17:27;34.57;;;24.43;;
55222;SDS011;41090;48.632;12.428;2022-12-16T18:20:11;38.33;;;26.10;;
55222;SDS011;41090;48.632;12.428;2022-12-16T18:22:58;34.47;;;24.60;;
55222;SDS011;41090;48.632;12.428;2022-12-16T18:25:42;41.43;;;27.93;;
55222;SDS011;41090;48.632;12.428;2022-12-16T18:28:26;43.23;;;27.53;;
55222;SDS011;41090;48.632;12.428;2022-12-16T18:31:10;42.07;;;26.83;;
55222;SDS011;41090;48.632;12.428;2022-12-16T18:36:43;39.37;;;27.63;;
55222;SDS011;41090;48.632;12.428;2022-12-16T18:39:34;39.03;;;27.47;;
55222;SDS011;41090;48.632;12.428;2022-12-16T18:42:18;33.67;;;23.07;;
55222;SDS011;41090;48.632;12.428;2022-12-16T18:45:02;32.30;;;23.03;;
55222;SDS011;41090;48.632;12.428;2022-12-16T18:47:48;33.97;;;23.13;;